Straughn, Indiana
Current Conditions -  °F | °C
As of 10:53 PM on Friday 24 Oct 2014 (Local Time) from KMIE Reporting Station
Clear Clear  
Wind Chill: 54°   Ceiling: Unl
Heat Index: 54°   Visibility: 9mi
Dew Point: 48°   Wind: 5mph
Humidity: 80%   Direction: 210°SSW
Pressure: 30.02"   Gusts: NA
Location:  39.81°N, 85.29°W
Report Text: KMIE 250253Z AUTO 21004KT 9SM CLR 12/09 A3002 RMK AO2 SLP162 T01220089 55002
Loading
Personal Weather Stations






























Interactive Weather Map
Tropical Storm Tracking
New forecast layout! Learn more

10-Day Weather Forecast

Advertisements
Track Severe Weather on mobile